Dades meteomassalio
Diari Summary for Abril 1, 2017 Units:  Metric    English   Both
« Previous Day
Next Day »
Diari Semanal Mensual Anual Personalitzat
  Maxima: Minima: Mijana:
Temperatura: 16.6 °C 10.6 °C 12.9 °C
Rosada: 10.5 °C 3.6 °C 5.9 °C
Humitat: 92 % 43 % 63 %
Velocitat del vent: 53.7 km/h 0.0 km/h 27.3 km/h
Racha vent: 53.7 km/h - -
Vent:- - WNW
Pressio: 1021.6 hPa 1016.8 hPa -
Pluja: 0.3 mm    
Historical Graphs
 
 
Tabular Data for Abril 1, 2017
Time Temperature Dew Point Pressure Wind Wind Speed Wind Gust Humidity Rainfall Rate (Hourly) solar Conditions
00:02 11.8 °C 10.3 °C 1017.5 hPa Calm     91 % 0.0 mm 0.0 W/m2 RA
00:03 11.8 °C 10.3 °C 1017.5 hPa Calm     91 % 0.0 mm 0.0 W/m2 RA
00:08 11.8 °C 10.4 °C 1017.5 hPa Calm     91 % 0.0 mm 0.0 W/m2 CLR
00:13 11.7 °C 10.3 °C 1017.8 hPa Calm     91 % 0.0 mm 0.0 W/m2 CLR
00:18 11.7 °C 10.3 °C 1017.8 hPa Calm     91 % 0.0 mm 0.0 W/m2 CLR
00:23 11.8 °C 10.5 °C 1017.5 hPa Calm     92 % 0.0 mm 0.0 W/m2 CLR
00:28 11.7 °C 10.4 °C 1017.8 hPa Calm     92 % 0.0 mm 0.0 W/m2 CLR
00:33 11.6 °C 10.3 °C 1017.5 hPa Calm     92 % 0.0 mm 0.0 W/m2 CLR
00:38 11.6 °C 10.3 °C 1017.8 hPa Calm     92 % 0.0 mm 0.0 W/m2 CLR
00:43 11.6 °C 10.3 °C 1017.5 hPa Calm     92 % 0.0 mm 0.0 W/m2 CLR
00:48 11.6 °C 10.3 °C 1017.5 hPa Calm     92 % 0.0 mm 0.0 W/m2 CLR
00:53 11.6 °C 10.3 °C 1017.5 hPa Calm     92 % 0.0 mm 0.0 W/m2 CLR
00:58 11.6 °C 10.3 °C 1017.2 hPa Calm     92 % 0.0 mm 0.0 W/m2 CLR
01:03 11.4 °C 10.0 °C 1017.2 hPa Calm     91 % 0.0 mm 0.0 W/m2 CLR
01:08 11.4 °C 10.0 °C 1017.2 hPa WSW 5.6 km/h 5.6 km/h 91 % 0.0 mm 0.0 W/m2 CLR
01:13 11.8 °C 9.5 °C 1016.8 hPa West 13.0 km/h 13.0 km/h 86 % 0.0 mm 0.0 W/m2 CLR
01:18 12.1 °C 9.3 °C 1016.8 hPa WSW 14.8 km/h 14.8 km/h 83 % 0.0 mm 0.0 W/m2 CLR
01:23 12.5 °C 8.8 °C 1016.8 hPa West 18.5 km/h 18.5 km/h 78 % 0.0 mm 0.0 W/m2 CLR
01:28 13.1 °C 8.3 °C 1016.8 hPa West 17.7 km/h 17.7 km/h 73 % 0.0 mm 0.0 W/m2 CLR
01:33 13.3 °C 8.0 °C 1017.2 hPa West 22.2 km/h 22.2 km/h 70 % 0.0 mm 0.0 W/m2 CLR
01:38 13.5 °C 7.9 °C 1016.8 hPa WNW 22.2 km/h 22.2 km/h 69 % 0.0 mm 0.0 W/m2 CLR
01:43 13.7 °C 7.5 °C 1016.8 hPa West 24.1 km/h 24.1 km/h 66 % 0.0 mm 0.0 W/m2 CLR
01:48 13.7 °C 7.5 °C 1016.8 hPa WSW 27.4 km/h 27.4 km/h 66 % 0.0 mm 0.0 W/m2 CLR
01:53 13.4 °C 7.6 °C 1016.8 hPa West 18.5 km/h 18.5 km/h 68 % 0.0 mm 0.0 W/m2 CLR
01:58 13.1 °C 7.7 °C 1017.2 hPa WSW 14.8 km/h 14.8 km/h 70 % 0.0 mm 0.0 W/m2 CLR
02:03 12.9 °C 7.6 °C 1016.8 hPa WSW 20.4 km/h 20.4 km/h 70 % 0.0 mm 0.0 W/m2 CLR
02:08 12.8 °C 7.7 °C 1016.8 hPa WSW 16.7 km/h 16.7 km/h 71 % 0.0 mm 0.0 W/m2 CLR
02:13 12.8 °C 7.7 °C 1016.8 hPa West 14.8 km/h 14.8 km/h 71 % 0.0 mm 0.0 W/m2 CLR
02:18 12.7 °C 7.6 °C 1016.8 hPa West 13.0 km/h 13.0 km/h 71 % 0.0 mm 0.0 W/m2 CLR
02:23 12.6 °C 7.5 °C 1016.8 hPa WSW 18.5 km/h 18.5 km/h 71 % 0.0 mm 0.0 W/m2 CLR
02:28 12.6 °C 7.5 °C 1016.8 hPa West 18.5 km/h 18.5 km/h 71 % 0.0 mm 0.0 W/m2 CLR
02:33 12.5 °C 7.4 °C 1016.8 hPa WSW 7.4 km/h 7.4 km/h 71 % 0.0 mm 0.0 W/m2 CLR
02:38 12.5 °C 7.2 °C 1016.8 hPa West 11.1 km/h 11.1 km/h 70 % 0.0 mm 0.0 W/m2 CLR
02:43 12.8 °C 7.0 °C 1016.8 hPa West 24.1 km/h 24.1 km/h 68 % 0.0 mm 0.0 W/m2 CLR
02:48 13.1 °C 6.6 °C 1016.8 hPa West 18.5 km/h 18.5 km/h 65 % 0.0 mm 0.0 W/m2 CLR
02:53 13.3 °C 6.6 °C 1016.8 hPa West 22.5 km/h 22.5 km/h 64 % 0.0 mm 0.0 W/m2 CLR
02:58 13.3 °C 6.4 °C 1016.8 hPa West 22.2 km/h 22.2 km/h 63 % 0.0 mm 0.0 W/m2 CLR
03:03 13.3 °C 6.7 °C 1016.8 hPa West 25.9 km/h 25.9 km/h 64 % 0.0 mm 0.0 W/m2 CLR
03:08 13.3 °C 6.6 °C 1016.8 hPa West 20.4 km/h 20.4 km/h 64 % 0.0 mm 0.0 W/m2 CLR
03:13 13.0 °C 6.6 °C 1016.8 hPa West 22.2 km/h 22.2 km/h 65 % 0.0 mm 0.0 W/m2 CLR
03:18 12.8 °C 6.6 °C 1016.8 hPa WNW 20.4 km/h 20.4 km/h 66 % 0.0 mm 0.0 W/m2 CLR
03:23 12.6 °C 6.6 °C 1016.8 hPa WNW 18.5 km/h 18.5 km/h 67 % 0.0 mm 0.0 W/m2 CLR
03:28 12.4 °C 6.5 °C 1016.8 hPa WNW 16.7 km/h 16.7 km/h 67 % 0.0 mm 0.0 W/m2 CLR
03:33 12.3 °C 6.4 °C 1016.8 hPa West 20.9 km/h 20.9 km/h 67 % 0.0 mm 0.0 W/m2 CLR
03:38 12.3 °C 6.4 °C 1016.8 hPa WNW 18.5 km/h 18.5 km/h 67 % 0.0 mm 0.0 W/m2 CLR
03:43 12.2 °C 6.4 °C 1016.8 hPa West 18.5 km/h 18.5 km/h 68 % 0.0 mm 0.0 W/m2 CLR
03:48 12.0 °C 6.3 °C 1016.8 hPa West 17.7 km/h 17.7 km/h 68 % 0.0 mm 0.0 W/m2 CLR
03:53 12.1 °C 6.2 °C 1016.8 hPa West 19.3 km/h 19.3 km/h 67 % 0.0 mm 0.0 W/m2 CLR
03:58 12.2 °C 6.2 °C 1016.8 hPa WNW 20.4 km/h 20.4 km/h 67 % 0.0 mm 0.0 W/m2 CLR
04:03 12.1 °C 6.2 °C 1016.8 hPa WNW 18.5 km/h 18.5 km/h 67 % 0.0 mm 0.0 W/m2 CLR
04:08 11.9 °C 6.2 °C 1016.8 hPa WNW 18.5 km/h 18.5 km/h 68 % 0.0 mm 0.0 W/m2 CLR
04:13 11.7 °C 6.2 °C 1016.8 hPa WNW 18.5 km/h 18.5 km/h 69 % 0.0 mm 0.0 W/m2 CLR
04:18 11.4 °C 6.1 °C 1016.8 hPa NW 14.8 km/h 14.8 km/h 70 % 0.0 mm 0.0 W/m2 CLR
04:23 11.0 °C 6.2 °C 1017.2 hPa WNW 11.1 km/h 11.1 km/h 72 % 0.0 mm 0.0 W/m2 CLR
04:28 10.7 °C 6.1 °C 1016.8 hPa West 3.7 km/h 3.7 km/h 73 % 0.0 mm 0.0 W/m2 CLR
04:34 10.9 °C 6.1 °C 1016.8 hPa West 18.5 km/h 18.5 km/h 72 % 0.0 mm 0.0 W/m2 CLR
04:39 11.1 °C 6.1 °C 1016.8 hPa West 20.4 km/h 20.4 km/h 71 % 0.0 mm 0.0 W/m2 CLR
04:44 11.1 °C 6.0 °C 1016.8 hPa WNW 20.4 km/h 20.4 km/h 71 % 0.0 mm 0.0 W/m2 CLR
04:49 10.9 °C 5.8 °C 1016.8 hPa WNW 18.5 km/h 18.5 km/h 71 % 0.0 mm 0.0 W/m2 CLR
04:54 11.0 °C 5.7 °C 1016.8 hPa WNW 18.5 km/h 18.5 km/h 70 % 0.0 mm 0.0 W/m2 CLR
04:59 10.8 °C 5.8 °C 1016.8 hPa West 18.5 km/h 18.5 km/h 71 % 0.0 mm 0.0 W/m2 CLR
05:04 10.8 °C 5.6 °C 1016.8 hPa West 18.5 km/h 18.5 km/h 70 % 0.0 mm 0.0 W/m2 CLR
05:09 10.9 °C 5.8 °C 1016.8 hPa WNW 18.5 km/h 18.5 km/h 71 % 0.0 mm 0.0 W/m2 CLR
05:14 10.9 °C 5.6 °C 1016.8 hPa West 20.4 km/h 20.4 km/h 70 % 0.0 mm 0.0 W/m2 CLR
05:19 10.9 °C 5.6 °C 1016.8 hPa West 18.5 km/h 18.5 km/h 70 % 0.0 mm 0.0 W/m2 CLR
05:24 10.9 °C 5.4 °C 1016.8 hPa West 16.7 km/h 16.7 km/h 69 % 0.0 mm 0.0 W/m2 CLR
05:34 11.0 °C 5.3 °C 1016.8 hPa WNW 24.1 km/h 24.1 km/h 68 % 0.0 mm 0.0 W/m2 CLR
05:39 11.0 °C 5.3 °C 1016.8 hPa WNW 18.5 km/h 18.5 km/h 68 % 0.0 mm 0.0 W/m2 CLR
05:44 11.1 °C 5.2 °C 1017.2 hPa West 24.1 km/h 24.1 km/h 67 % 0.0 mm 0.0 W/m2 CLR
05:49 11.1 °C 5.2 °C 1016.8 hPa West 18.5 km/h 18.5 km/h 67 % 0.0 mm 0.0 W/m2 CLR
05:54 11.2 °C 5.3 °C 1016.8 hPa West 25.9 km/h 25.9 km/h 67 % 0.0 mm 0.0 W/m2 CLR
05:59 11.2 °C 5.3 °C 1016.8 hPa West 24.1 km/h 24.1 km/h 67 % 0.0 mm 0.0 W/m2 CLR
06:04 11.1 °C 5.2 °C 1016.8 hPa West 22.2 km/h 22.2 km/h 67 % 0.0 mm 0.0 W/m2 CLR
06:09 11.0 °C 5.1 °C 1016.8 hPa West 24.1 km/h 24.1 km/h 67 % 0.0 mm 0.0 W/m2 CLR
06:14 10.9 °C 5.1 °C 1016.8 hPa West 22.2 km/h 22.2 km/h 67 % 0.0 mm 0.0 W/m2 CLR
06:19 10.8 °C 5.2 °C 1016.8 hPa West 22.2 km/h 22.2 km/h 68 % 0.0 mm 0.0 W/m2 CLR
06:24 10.7 °C 5.1 °C 1016.8 hPa West 24.1 km/h 24.1 km/h 68 % 0.0 mm 0.0 W/m2 CLR
06:29 10.8 °C 5.4 °C 1016.8 hPa WNW 24.1 km/h 24.1 km/h 69 % 0.0 mm 0.0 W/m2 CLR
06:34 10.8 °C 5.3 °C 1016.8 hPa WNW 24.1 km/h 24.1 km/h 69 % 0.0 mm 0.0 W/m2 CLR
06:39 10.7 °C 5.4 °C 1016.8 hPa WNW 24.1 km/h 24.1 km/h 70 % 0.0 mm 0.0 W/m2 CLR
06:44 10.6 °C 5.6 °C 1016.8 hPa West 20.4 km/h 20.4 km/h 71 % 0.0 mm 0.0 W/m2 CLR
06:49 10.6 °C 5.5 °C 1016.8 hPa West 22.5 km/h 22.5 km/h 71 % 0.0 mm 0.0 W/m2 CLR
06:54 10.6 °C 5.3 °C 1016.8 hPa West 25.9 km/h 25.9 km/h 70 % 0.0 mm 0.0 W/m2 CLR
06:59 10.6 °C 5.4 °C 1016.8 hPa WNW 24.1 km/h 24.1 km/h 70 % 0.0 mm 0.0 W/m2 CLR
07:04 10.6 °C 5.4 °C 1016.8 hPa West 29.0 km/h 29.0 km/h 70 % 0.0 mm 0.0 W/m2 CLR
07:09 10.7 °C 5.6 °C 1016.8 hPa West 31.5 km/h 31.5 km/h 71 % 0.3 mm 0.0 W/m2 RA
07:14 10.6 °C 5.6 °C 1016.8 hPa WNW 29.6 km/h 29.6 km/h 71 % 0.3 mm 0.0 W/m2 CLR
07:19 10.6 °C 5.8 °C 1016.8 hPa WNW 27.8 km/h 27.8 km/h 72 % 0.3 mm 0.0 W/m2 CLR
07:24 10.6 °C 5.9 °C 1016.8 hPa WNW 24.1 km/h 24.1 km/h 73 % 0.3 mm 0.0 W/m2 CLR
07:29 10.6 °C 5.9 °C 1017.2 hPa NW 24.1 km/h 24.1 km/h 73 % 0.3 mm 0.0 W/m2 CLR
07:34 10.6 °C 5.9 °C 1017.2 hPa West 22.5 km/h 22.5 km/h 73 % 0.3 mm 0.0 W/m2 OVC
07:39 10.6 °C 6.2 °C 1017.2 hPa WNW 18.5 km/h 18.5 km/h 74 % 0.3 mm 0.0 W/m2 OVC
07:44 10.6 °C 6.1 °C 1017.5 hPa NW 24.1 km/h 24.1 km/h 74 % 0.3 mm 5.0 W/m2 OVC
07:49 10.6 °C 6.1 °C 1017.2 hPa WNW 18.5 km/h 18.5 km/h 74 % 0.3 mm 9.0 W/m2 BKN
07:54 10.6 °C 6.2 °C 1017.5 hPa WNW 18.5 km/h 18.5 km/h 74 % 0.3 mm 7.0 W/m2 BKN
07:59 10.7 °C 6.2 °C 1017.5 hPa West 24.1 km/h 24.1 km/h 74 % 0.3 mm 19.0 W/m2 BKN
08:04 10.8 °C 6.3 °C 1017.5 hPa WNW 19.3 km/h 19.3 km/h 74 % 0.3 mm 26.0 W/m2 BKN
08:09 10.8 °C 6.2 °C 1017.5 hPa WNW 27.8 km/h 27.8 km/h 73 % 0.0 mm 32.0 W/m2 BKN
08:14 10.8 °C 6.4 °C 1017.5 hPa WNW 24.1 km/h 24.1 km/h 74 % 0.0 mm 33.0 W/m2 BKN
08:19 10.8 °C 6.3 °C 1017.5 hPa West 22.5 km/h 22.5 km/h 74 % 0.0 mm 39.0 W/m2 BKN
08:24 10.8 °C 6.4 °C 1017.5 hPa West 22.2 km/h 22.2 km/h 74 % 0.0 mm 53.0 W/m2 SCT
08:29 10.9 °C 6.4 °C 1017.5 hPa WNW 24.1 km/h 24.1 km/h 74 % 0.0 mm 104.0 W/m2 CLR
08:34 11.1 °C 6.6 °C 1017.8 hPa NW 40.7 km/h 40.7 km/h 74 % 0.0 mm 77.0 W/m2 CLR
08:39 11.1 °C 6.4 °C 1017.8 hPa NW 29.0 km/h 29.0 km/h 73 % 0.0 mm 84.0 W/m2 FEW
08:49 11.3 °C 6.4 °C 1017.8 hPa WNW 37.0 km/h 37.0 km/h 72 % 0.0 mm 91.0 W/m2 CLR
08:54 11.3 °C 6.4 °C 1017.8 hPa NW 31.5 km/h 31.5 km/h 72 % 0.0 mm 95.0 W/m2 CLR
08:59 11.3 °C 6.4 °C 1017.8 hPa NW 27.8 km/h 27.8 km/h 72 % 0.0 mm 218.0 W/m2 CLR
09:04 11.3 °C 6.4 °C 1017.8 hPa West 29.6 km/h 29.6 km/h 72 % 0.0 mm 207.0 W/m2 CLR
09:09 11.4 °C 6.3 °C 1017.8 hPa NW 19.3 km/h 19.3 km/h 71 % 0.0 mm 214.0 W/m2 CLR
09:14 11.4 °C 6.3 °C 1017.8 hPa NW 30.6 km/h 30.6 km/h 71 % 0.0 mm 230.0 W/m2 CLR
09:19 11.5 °C 6.4 °C 1018.2 hPa WNW 24.1 km/h 24.1 km/h 71 % 0.0 mm 274.0 W/m2 CLR
09:24 11.6 °C 6.3 °C 1018.2 hPa WNW 38.6 km/h 38.6 km/h 70 % 0.0 mm 281.0 W/m2 CLR
09:29 11.6 °C 6.5 °C 1018.2 hPa WNW 22.2 km/h 22.2 km/h 71 % 0.0 mm 330.0 W/m2 CLR
09:34 11.7 °C 6.4 °C 1018.2 hPa NW 33.3 km/h 33.3 km/h 70 % 0.0 mm 139.0 W/m2 CLR
09:39 11.4 °C 5.9 °C 1018.2 hPa NNW 31.5 km/h 31.5 km/h 69 % 0.0 mm 155.0 W/m2 CLR
09:44 11.3 °C 6.0 °C 1018.2 hPa NW 32.2 km/h 32.2 km/h 70 % 0.0 mm 137.0 W/m2 CLR
09:49 11.2 °C 5.9 °C 1018.2 hPa WNW 37.0 km/h 37.0 km/h 70 % 0.0 mm 334.0 W/m2 CLR
09:54 11.3 °C 6.0 °C 1018.5 hPa NNW 31.5 km/h 31.5 km/h 70 % 0.0 mm 267.0 W/m2 CLR
09:59 11.4 °C 5.9 °C 1018.5 hPa West 42.6 km/h 42.6 km/h 69 % 0.0 mm 345.0 W/m2 CLR
10:04 11.6 °C 6.1 °C 1018.5 hPa NW 37.0 km/h 37.0 km/h 69 % 0.0 mm 388.0 W/m2 CLR
10:09 11.6 °C 6.1 °C 1018.5 hPa NW 32.2 km/h 32.2 km/h 69 % 0.0 mm 403.0 W/m2 CLR
10:14 11.7 °C 6.2 °C 1018.5 hPa NW 33.3 km/h 33.3 km/h 69 % 0.0 mm 420.0 W/m2 CLR
10:19 11.8 °C 6.5 °C 1018.5 hPa NNW 27.8 km/h 27.8 km/h 70 % 0.0 mm 450.0 W/m2 CLR
10:24 11.9 °C 6.4 °C 1018.5 hPa NNW 31.5 km/h 31.5 km/h 69 % 0.0 mm 461.0 W/m2 CLR
10:29 11.9 °C 6.2 °C 1018.5 hPa NNW 33.3 km/h 33.3 km/h 68 % 0.0 mm 439.0 W/m2 CLR
10:34 12.1 °C 6.6 °C 1018.5 hPa WNW 37.0 km/h 37.0 km/h 69 % 0.0 mm 506.0 W/m2 CLR
10:39 12.1 °C 6.3 °C 1018.8 hPa NW 31.5 km/h 31.5 km/h 68 % 0.0 mm 533.0 W/m2 CLR
10:44 12.1 °C 6.4 °C 1018.8 hPa NNW 35.2 km/h 35.2 km/h 68 % 0.0 mm 547.0 W/m2 CLR
10:49 12.1 °C 6.4 °C 1018.5 hPa NNW 33.3 km/h 33.3 km/h 68 % 0.0 mm 580.0 W/m2 CLR
10:54 12.3 °C 7.0 °C 1018.5 hPa NNW 27.8 km/h 27.8 km/h 70 % 0.0 mm 606.0 W/m2 CLR
11:00 12.5 °C 6.8 °C 1018.5 hPa NW 33.3 km/h 33.3 km/h 68 % 0.0 mm 606.0 W/m2 CLR
11:05 12.6 °C 6.8 °C 1018.5 hPa WNW 38.9 km/h 38.9 km/h 68 % 0.0 mm 594.0 W/m2 CLR
11:10 12.7 °C 6.7 °C 1018.5 hPa WNW 37.0 km/h 37.0 km/h 67 % 0.0 mm 612.0 W/m2 CLR
11:15 12.7 °C 6.7 °C 1018.5 hPa NNW 33.3 km/h 33.3 km/h 67 % 0.0 mm 624.0 W/m2 CLR
11:20 12.7 °C 6.3 °C 1018.8 hPa NW 44.4 km/h 44.4 km/h 65 % 0.0 mm 687.0 W/m2 CLR
11:25 12.8 °C 6.8 °C 1018.8 hPa WNW 48.1 km/h 48.1 km/h 67 % 0.0 mm 721.0 W/m2 CLR
11:30 12.9 °C 6.5 °C 1018.8 hPa NW 37.0 km/h 37.0 km/h 65 % 0.0 mm 260.0 W/m2 CLR
11:35 12.8 °C 6.6 °C 1018.8 hPa NNW 37.0 km/h 37.0 km/h 66 % 0.0 mm 295.0 W/m2 CLR
11:40 12.6 °C 6.4 °C 1019.2 hPa NW 33.3 km/h 33.3 km/h 66 % 0.0 mm 207.0 W/m2 CLR
11:45 12.7 °C 6.7 °C 1019.2 hPa North 29.0 km/h 29.0 km/h 67 % 0.0 mm 211.0 W/m2 CLR
11:50 12.8 °C 6.8 °C 1019.2 hPa NNW 30.6 km/h 30.6 km/h 67 % 0.0 mm 171.0 W/m2 CLR
11:55 12.7 °C 6.7 °C 1019.2 hPa NW 33.3 km/h 33.3 km/h 67 % 0.0 mm 311.0 W/m2 CLR
12:00 12.8 °C 7.1 °C 1019.2 hPa NNW 18.5 km/h 18.5 km/h 68 % 0.0 mm 163.0 W/m2 CLR
12:05 12.7 °C 6.3 °C 1019.2 hPa NNW 37.0 km/h 37.0 km/h 65 % 0.0 mm 178.0 W/m2 CLR
12:10 12.9 °C 6.3 °C 1019.2 hPa NNW 42.6 km/h 42.6 km/h 64 % 0.0 mm 214.0 W/m2 CLR
12:15 13.1 °C 6.4 °C 1019.2 hPa NNW 40.7 km/h 40.7 km/h 64 % 0.0 mm 795.0 W/m2 CLR
12:20 13.4 °C 6.5 °C 1019.2 hPa NNW 40.7 km/h 40.7 km/h 63 % 0.0 mm 942.0 W/m2 CLR
12:25 13.6 °C 6.4 °C 1019.2 hPa WNW 42.6 km/h 42.6 km/h 62 % 0.0 mm 944.0 W/m2 CLR
12:30 13.6 °C 6.4 °C 1019.2 hPa NNW 32.2 km/h 32.2 km/h 62 % 0.0 mm 323.0 W/m2 CLR
12:35 13.2 °C 6.3 °C 1019.2 hPa NW 35.2 km/h 35.2 km/h 63 % 0.0 mm 248.0 W/m2 CLR
12:40 13.0 °C 6.1 °C 1019.2 hPa NW 29.6 km/h 29.6 km/h 63 % 0.0 mm 313.0 W/m2 CLR
12:45 13.2 °C 6.3 °C 1019.2 hPa WNW 40.7 km/h 40.7 km/h 63 % 0.0 mm 411.0 W/m2 CLR
12:50 13.3 °C 5.9 °C 1019.2 hPa West 27.8 km/h 27.8 km/h 61 % 0.0 mm 353.0 W/m2 CLR
12:55 13.4 °C 6.3 °C 1019.2 hPa NW 25.9 km/h 25.9 km/h 62 % 0.0 mm 299.0 W/m2 CLR
13:00 13.4 °C 6.1 °C 1019.2 hPa WNW 31.5 km/h 31.5 km/h 61 % 0.0 mm 302.0 W/m2 CLR
13:05 13.4 °C 6.0 °C 1019.2 hPa NNW 35.4 km/h 35.4 km/h 61 % 0.0 mm 352.0 W/m2 CLR
13:10 13.6 °C 5.9 °C 1019.2 hPa NNW 31.5 km/h 31.5 km/h 60 % 0.0 mm 373.0 W/m2 CLR
13:15 13.7 °C 6.1 °C 1018.8 hPa NW 37.0 km/h 37.0 km/h 60 % 0.0 mm 364.0 W/m2 CLR
13:20 13.6 °C 5.9 °C 1018.8 hPa NW 31.5 km/h 31.5 km/h 60 % 0.0 mm 297.0 W/m2 CLR
13:25 14.3 °C 6.1 °C 1018.8 hPa NW 35.2 km/h 35.2 km/h 58 % 0.0 mm 824.0 W/m2 CLR
13:31 14.6 °C 5.9 °C 1018.8 hPa NW 37.0 km/h 37.0 km/h 56 % 0.0 mm 969.0 W/m2 CLR
13:35 14.9 °C 6.2 °C 1018.8 hPa NNW 37.0 km/h 37.0 km/h 56 % 0.0 mm 930.0 W/m2 CLR
13:41 15.1 °C 6.1 °C 1018.5 hPa NW 46.3 km/h 46.3 km/h 55 % 0.0 mm 965.0 W/m2 CLR
13:46 14.8 °C 5.6 °C 1018.5 hPa NW 38.6 km/h 38.6 km/h 54 % 0.0 mm 937.0 W/m2 CLR
13:51 15.2 °C 5.9 °C 1018.5 hPa NW 40.7 km/h 40.7 km/h 54 % 0.0 mm 947.0 W/m2 CLR
13:56 15.2 °C 6.5 °C 1018.5 hPa WNW 40.7 km/h 40.7 km/h 56 % 0.0 mm 930.0 W/m2 CLR
14:01 15.4 °C 5.9 °C 1018.2 hPa North 37.0 km/h 37.0 km/h 53 % 0.0 mm 875.0 W/m2 CLR
14:06 15.4 °C 5.8 °C 1018.5 hPa NNW 24.1 km/h 24.1 km/h 53 % 0.0 mm 926.0 W/m2 CLR
14:11 15.2 °C 5.2 °C 1018.5 hPa North 37.0 km/h 37.0 km/h 51 % 0.0 mm 144.0 W/m2 CLR
14:16 15.3 °C 5.5 °C 1018.5 hPa NNW 35.4 km/h 35.4 km/h 52 % 0.0 mm 847.0 W/m2 CLR
14:21 15.3 °C 5.5 °C 1018.2 hPa North 40.7 km/h 40.7 km/h 52 % 0.0 mm 875.0 W/m2 CLR
14:26 15.5 °C 5.9 °C 1018.2 hPa NW 37.0 km/h 37.0 km/h 53 % 0.0 mm 893.0 W/m2 CLR
14:31 15.5 °C 5.4 °C 1018.2 hPa NW 46.3 km/h 46.3 km/h 51 % 0.0 mm 905.0 W/m2 CLR
14:36 15.6 °C 5.8 °C 1018.2 hPa NNW 42.6 km/h 42.6 km/h 52 % 0.0 mm 916.0 W/m2 CLR
14:41 15.7 °C 5.0 °C 1018.2 hPa NNW 40.2 km/h 40.2 km/h 49 % 0.0 mm 886.0 W/m2 CLR
14:46 15.5 °C 4.8 °C 1018.2 hPa NNW 43.4 km/h 43.4 km/h 49 % 0.0 mm 891.0 W/m2 CLR
14:51 15.7 °C 5.6 °C 1018.2 hPa NNW 38.9 km/h 38.9 km/h 51 % 0.0 mm 837.0 W/m2 CLR
14:56 15.8 °C 5.1 °C 1018.2 hPa NW 48.1 km/h 48.1 km/h 49 % 0.0 mm 831.0 W/m2 CLR
15:01 15.7 °C 5.0 °C 1018.2 hPa NNW 35.4 km/h 35.4 km/h 49 % 0.0 mm 844.0 W/m2 CLR
15:06 15.9 °C 6.1 °C 1017.8 hPa NW 29.0 km/h 29.0 km/h 52 % 0.0 mm 837.0 W/m2 CLR
15:11 15.8 °C 4.8 °C 1017.8 hPa NNW 40.7 km/h 40.7 km/h 48 % 0.0 mm 169.0 W/m2 CLR
15:16 15.6 °C 4.9 °C 1017.8 hPa NNW 42.6 km/h 42.6 km/h 49 % 0.0 mm 816.0 W/m2 CLR
15:21 15.9 °C 4.3 °C 1017.8 hPa North 46.7 km/h 46.7 km/h 46 % 0.0 mm 826.0 W/m2 CLR
15:26 15.9 °C 5.2 °C 1017.8 hPa NW 42.6 km/h 42.6 km/h 49 % 0.0 mm 877.0 W/m2 CLR
15:31 16.3 °C 4.6 °C 1017.8 hPa NW 48.1 km/h 48.1 km/h 46 % 0.0 mm 826.0 W/m2 CLR
15:36 16.3 °C 4.6 °C 1017.8 hPa NNW 46.3 km/h 46.3 km/h 46 % 0.0 mm 833.0 W/m2 CLR
15:41 16.1 °C 4.8 °C 1017.8 hPa NNW 48.3 km/h 48.3 km/h 47 % 0.0 mm 197.0 W/m2 CLR
15:46 16.1 °C 4.8 °C 1017.8 hPa North 50.0 km/h 50.0 km/h 47 % 0.0 mm 874.0 W/m2 CLR
15:51 16.4 °C 5.1 °C 1017.5 hPa NNW 50.0 km/h 50.0 km/h 47 % 0.0 mm 837.0 W/m2 CLR
15:56 16.5 °C 5.2 °C 1017.5 hPa North 40.7 km/h 40.7 km/h 47 % 0.0 mm 782.0 W/m2 CLR
16:01 16.5 °C 4.5 °C 1017.5 hPa NNW 48.1 km/h 48.1 km/h 45 % 0.0 mm 747.0 W/m2 CLR
16:06 16.4 °C 4.8 °C 1017.5 hPa NW 37.0 km/h 37.0 km/h 46 % 0.0 mm 728.0 W/m2 CLR
16:11 16.6 °C 3.9 °C 1017.5 hPa NW 48.1 km/h 48.1 km/h 43 % 0.0 mm 717.0 W/m2 CLR
16:16 16.4 °C 4.4 °C 1017.5 hPa NNW 48.1 km/h 48.1 km/h 45 % 0.0 mm 765.0 W/m2 CLR
16:21 16.6 °C 4.9 °C 1017.5 hPa North 44.4 km/h 44.4 km/h 46 % 0.0 mm 708.0 W/m2 CLR
16:26 16.6 °C 5.2 °C 1017.5 hPa NNW 46.3 km/h 46.3 km/h 47 % 0.0 mm 700.0 W/m2 CLR
16:31 16.4 °C 5.1 °C 1017.5 hPa NNW 50.0 km/h 50.0 km/h 47 % 0.0 mm 738.0 W/m2 CLR
16:36 15.8 °C 4.8 °C 1017.5 hPa NW 35.4 km/h 35.4 km/h 48 % 0.0 mm 737.0 W/m2 CLR
16:41 15.6 °C 5.2 °C 1017.5 hPa NNW 24.1 km/h 24.1 km/h 50 % 0.0 mm 139.0 W/m2 CLR
16:46 15.5 °C 4.8 °C 1017.5 hPa WNW 44.4 km/h 44.4 km/h 49 % 0.0 mm 91.0 W/m2 CLR
16:51 15.6 °C 4.9 °C 1017.5 hPa NNW 44.4 km/h 44.4 km/h 49 % 0.0 mm 652.0 W/m2 CLR
16:56 15.7 °C 4.7 °C 1017.5 hPa NNW 44.4 km/h 44.4 km/h 48 % 0.0 mm 626.0 W/m2 CLR
17:01 15.9 °C 5.5 °C 1017.5 hPa NNW 38.9 km/h 38.9 km/h 50 % 0.0 mm 596.0 W/m2 CLR
17:06 15.6 °C 4.6 °C 1017.5 hPa NNW 42.6 km/h 42.6 km/h 48 % 0.0 mm 626.0 W/m2 CLR
17:11 15.8 °C 3.9 °C 1017.5 hPa NNW 42.6 km/h 42.6 km/h 45 % 0.0 mm 587.0 W/m2 CLR
17:16 15.9 °C 4.3 °C 1017.5 hPa North 33.3 km/h 33.3 km/h 46 % 0.0 mm 573.0 W/m2 CLR
17:21 16.3 °C 3.7 °C 1017.5 hPa NNW 46.3 km/h 46.3 km/h 43 % 0.0 mm 555.0 W/m2 CLR
17:26 16.4 °C 3.8 °C 1017.8 hPa NNW 35.2 km/h 35.2 km/h 43 % 0.0 mm 534.0 W/m2 CLR
17:31 16.2 °C 3.6 °C 1017.8 hPa NW 48.1 km/h 48.1 km/h 43 % 0.0 mm 517.0 W/m2 CLR
17:36 16.3 °C 4.0 °C 1017.8 hPa NNW 45.1 km/h 45.1 km/h 44 % 0.0 mm 504.0 W/m2 CLR
17:41 15.8 °C 3.6 °C 1017.8 hPa NW 53.7 km/h 53.7 km/h 44 % 0.0 mm 513.0 W/m2 CLR
17:46 15.7 °C 4.7 °C 1017.8 hPa NW 38.9 km/h 38.9 km/h 48 % 0.0 mm 524.0 W/m2 CLR
17:51 15.7 °C 5.3 °C 1017.8 hPa WNW 35.2 km/h 35.2 km/h 50 % 0.0 mm 510.0 W/m2 CLR
17:56 15.5 °C 5.4 °C 1017.8 hPa WNW 42.6 km/h 42.6 km/h 51 % 0.0 mm 454.0 W/m2 CLR
18:01 15.3 °C 5.5 °C 1017.8 hPa WNW 42.6 km/h 42.6 km/h 52 % 0.0 mm 420.0 W/m2 CLR
18:06 15.2 °C 5.4 °C 1017.8 hPa WNW 31.5 km/h 31.5 km/h 52 % 0.0 mm 397.0 W/m2 CLR
18:11 15.1 °C 5.3 °C 1017.8 hPa NW 31.5 km/h 31.5 km/h 52 % 0.0 mm 383.0 W/m2 CLR
18:16 15.1 °C 5.3 °C 1017.8 hPa West 38.9 km/h 38.9 km/h 52 % 0.0 mm 371.0 W/m2 CLR
18:21 14.8 °C 5.6 °C 1017.8 hPa West 40.7 km/h 40.7 km/h 54 % 0.0 mm 353.0 W/m2 CLR
18:26 14.9 °C 5.9 °C 1017.8 hPa WNW 31.5 km/h 31.5 km/h 55 % 0.0 mm 332.0 W/m2 FEW
18:31 14.9 °C 5.4 °C 1018.2 hPa West 37.0 km/h 37.0 km/h 53 % 0.0 mm 318.0 W/m2 BKN
18:36 14.8 °C 5.6 °C 1018.2 hPa West 31.5 km/h 31.5 km/h 54 % 0.0 mm 62.0 W/m2 OVC
18:41 14.6 °C 5.3 °C 1018.2 hPa West 31.5 km/h 31.5 km/h 54 % 0.0 mm 81.0 W/m2 OVC
18:46 14.6 °C 5.3 °C 1018.2 hPa WNW 27.8 km/h 27.8 km/h 54 % 0.0 mm 239.0 W/m2 OVC
18:47 14.6 °C 5.4 °C 1018.2 hPa WNW 27.8 km/h 27.8 km/h 54 % 0.0 mm 239.0 W/m2 OVC
18:52 14.3 °C 5.4 °C 1018.2 hPa NW 25.9 km/h 25.9 km/h 55 % 0.0 mm 49.0 W/m2 OVC
18:57 14.3 °C 5.6 °C 1018.5 hPa WNW 19.3 km/h 19.3 km/h 56 % 0.0 mm 79.0 W/m2 OVC
19:02 14.2 °C 5.5 °C 1018.5 hPa WNW 25.9 km/h 25.9 km/h 56 % 0.0 mm 63.0 W/m2 OVC
19:07 14.1 °C 5.4 °C 1018.2 hPa WNW 25.9 km/h 25.9 km/h 56 % 0.0 mm 63.0 W/m2 OVC
19:12 14.3 °C 5.6 °C 1018.5 hPa West 20.4 km/h 20.4 km/h 56 % 0.0 mm 207.0 W/m2 OVC
19:17 14.5 °C 5.8 °C 1018.5 hPa WNW 20.4 km/h 20.4 km/h 56 % 0.0 mm 167.0 W/m2 OVC
19:22 14.6 °C 5.3 °C 1018.5 hPa NW 29.0 km/h 29.0 km/h 54 % 0.0 mm 148.0 W/m2 OVC
19:27 14.7 °C 5.2 °C 1018.5 hPa NW 29.6 km/h 29.6 km/h 53 % 0.0 mm 116.0 W/m2 OVC
19:32 14.9 °C 5.1 °C 1018.5 hPa NW 24.1 km/h 24.1 km/h 52 % 0.0 mm 93.0 W/m2 OVC
19:42 14.8 °C 4.4 °C 1018.8 hPa NW 32.2 km/h 32.2 km/h 50 % 0.0 mm 53.0 W/m2 OVC
19:47 14.6 °C 4.5 °C 1018.8 hPa NW 33.3 km/h 33.3 km/h 51 % 0.0 mm 19.0 W/m2 OVC
19:52 14.2 °C 4.8 °C 1018.8 hPa NW 31.5 km/h 31.5 km/h 53 % 0.0 mm 18.0 W/m2 OVC
19:57 14.0 °C 4.3 °C 1018.8 hPa NNW 27.8 km/h 27.8 km/h 52 % 0.0 mm 14.0 W/m2 OVC
20:02 13.8 °C 4.4 °C 1018.8 hPa NW 24.1 km/h 24.1 km/h 53 % 0.0 mm 12.0 W/m2 OVC
20:07 13.7 °C 4.6 °C 1018.8 hPa NW 27.8 km/h 27.8 km/h 54 % 0.0 mm 11.0 W/m2 OVC
20:12 13.6 °C 4.4 °C 1018.8 hPa WNW 22.2 km/h 22.2 km/h 54 % 0.0 mm 9.0 W/m2 OVC
20:17 13.4 °C 4.6 °C 1018.8 hPa NW 24.1 km/h 24.1 km/h 55 % 0.0 mm 7.0 W/m2 OVC
20:22 13.4 °C 4.5 °C 1018.8 hPa NNW 20.4 km/h 20.4 km/h 55 % 0.0 mm 5.0 W/m2 OVC
20:27 13.3 °C 4.7 °C 1018.8 hPa NW 27.8 km/h 27.8 km/h 56 % 0.0 mm 0.0 W/m2 OVC
20:32 13.3 °C 4.7 °C 1018.8 hPa NW 18.5 km/h 18.5 km/h 56 % 0.0 mm 0.0 W/m2 OVC
20:42 13.1 °C 4.5 °C 1019.2 hPa WNW 24.1 km/h 24.1 km/h 56 % 0.0 mm 0.0 W/m2 CLR
20:47 13.1 °C 4.8 °C 1019.2 hPa NW 22.2 km/h 22.2 km/h 57 % 0.0 mm 0.0 W/m2 CLR
20:52 13.1 °C 4.8 °C 1019.5 hPa NNW 20.4 km/h 20.4 km/h 57 % 0.0 mm 0.0 W/m2 CLR
20:57 13.2 °C 4.8 °C 1019.5 hPa NW 18.5 km/h 18.5 km/h 57 % 0.0 mm 0.0 W/m2 CLR
21:02 13.2 °C 4.9 °C 1019.9 hPa NNW 22.5 km/h 22.5 km/h 57 % 0.0 mm 0.0 W/m2 CLR
21:07 13.1 °C 4.8 °C 1019.9 hPa NW 20.9 km/h 20.9 km/h 57 % 0.0 mm 0.0 W/m2 CLR
21:12 13.1 °C 4.7 °C 1020.2 hPa North 24.1 km/h 24.1 km/h 57 % 0.0 mm 0.0 W/m2 CLR
21:17 12.9 °C 4.6 °C 1020.2 hPa NNW 24.1 km/h 24.1 km/h 57 % 0.0 mm 0.0 W/m2 CLR
21:22 12.9 °C 4.3 °C 1020.5 hPa NW 25.9 km/h 25.9 km/h 56 % 0.0 mm 0.0 W/m2 CLR
21:23 12.8 °C 4.3 °C 1020.5 hPa NNW 25.9 km/h 25.9 km/h 56 % 0.0 mm 0.0 W/m2 CLR
21:28 12.8 °C 4.2 °C 1020.5 hPa NNW 31.5 km/h 31.5 km/h 56 % 0.0 mm 0.0 W/m2 CLR
21:33 12.6 °C 4.1 °C 1020.9 hPa NNW 31.5 km/h 31.5 km/h 56 % 0.0 mm 0.0 W/m2 CLR
21:38 12.6 °C 3.8 °C 1020.9 hPa NNW 40.7 km/h 40.7 km/h 55 % 0.0 mm 0.0 W/m2 CLR
21:43 12.6 °C 4.1 °C 1020.9 hPa NNW 31.5 km/h 31.5 km/h 56 % 0.0 mm 0.0 W/m2 CLR
21:48 12.4 °C 4.1 °C 1020.9 hPa NNW 31.5 km/h 31.5 km/h 57 % 0.0 mm 0.0 W/m2 CLR
21:53 12.3 °C 4.1 °C 1020.9 hPa NNW 25.9 km/h 25.9 km/h 57 % 0.0 mm 0.0 W/m2 CLR
21:58 12.3 °C 4.2 °C 1021.2 hPa NW 24.1 km/h 24.1 km/h 58 % 0.0 mm 0.0 W/m2 CLR
22:03 12.1 °C 4.3 °C 1021.2 hPa WNW 22.2 km/h 22.2 km/h 59 % 0.0 mm 0.0 W/m2 CLR
22:08 11.9 °C 4.4 °C 1021.2 hPa WNW 11.1 km/h 11.1 km/h 60 % 0.0 mm 0.0 W/m2 CLR
22:13 11.8 °C 4.5 °C 1021.2 hPa NW 18.5 km/h 18.5 km/h 61 % 0.0 mm 0.0 W/m2 CLR
22:18 11.7 °C 4.7 °C 1021.2 hPa NW 14.8 km/h 14.8 km/h 62 % 0.0 mm 0.0 W/m2 CLR
22:23 11.6 °C 4.6 °C 1021.2 hPa West 14.8 km/h 14.8 km/h 62 % 0.0 mm 0.0 W/m2 CLR
22:28 11.6 °C 4.5 °C 1021.2 hPa WNW 1.9 km/h   62 % 0.0 mm 0.0 W/m2 CLR
22:33 11.6 °C 4.7 °C 1021.2 hPa NW 20.4 km/h 20.4 km/h 63 % 0.0 mm 0.0 W/m2 CLR
22:38 11.6 °C 4.6 °C 1021.2 hPa WNW 25.9 km/h 25.9 km/h 62 % 0.0 mm 0.0 W/m2 CLR
22:43 11.6 °C 4.5 °C 1021.2 hPa NW 24.1 km/h 24.1 km/h 62 % 0.0 mm 0.0 W/m2 CLR
22:48 11.5 °C 4.4 °C 1021.6 hPa NW 20.4 km/h 20.4 km/h 62 % 0.0 mm 0.0 W/m2 CLR
22:53 11.4 °C 4.3 °C 1021.6 hPa NW 38.9 km/h 38.9 km/h 62 % 0.0 mm 0.0 W/m2 CLR
22:58 11.3 °C 4.3 °C 1021.2 hPa NW 24.1 km/h 24.1 km/h 62 % 0.0 mm 0.0 W/m2 CLR
23:03 11.2 °C 4.2 °C 1021.2 hPa NNW 18.5 km/h 18.5 km/h 62 % 0.0 mm 0.0 W/m2 CLR
23:08 11.1 °C 4.3 °C 1021.2 hPa WNW 20.4 km/h 20.4 km/h 63 % 0.0 mm 0.0 W/m2 CLR
23:13 10.9 °C 4.3 °C 1021.2 hPa WNW 14.8 km/h 14.8 km/h 64 % 0.0 mm 0.0 W/m2 CLR
23:18 10.9 °C 4.3 °C 1021.2 hPa West 20.4 km/h 20.4 km/h 64 % 0.0 mm 0.0 W/m2 CLR
23:23 10.9 °C 4.3 °C 1021.2 hPa WNW 27.8 km/h 27.8 km/h 64 % 0.0 mm 0.0 W/m2 CLR
23:28 10.7 °C 4.4 °C 1021.2 hPa WNW 25.7 km/h 25.7 km/h 65 % 0.0 mm 0.0 W/m2 CLR
23:33 10.7 °C 4.3 °C 1021.2 hPa WNW 18.5 km/h 18.5 km/h 65 % 0.0 mm 0.0 W/m2 CLR
23:38 10.6 °C 4.3 °C 1021.2 hPa West 20.4 km/h 20.4 km/h 65 % 0.0 mm 0.0 W/m2 CLR
23:43 10.7 °C 4.4 °C 1021.6 hPa WNW 33.3 km/h 33.3 km/h 65 % 0.0 mm 0.0 W/m2 CLR
23:48 10.8 °C 4.4 °C 1021.2 hPa WNW 18.5 km/h 18.5 km/h 65 % 0.0 mm 0.0 W/m2 CLR
23:53 10.6 °C 4.3 °C 1021.6 hPa WNW 20.4 km/h 20.4 km/h 65 % 0.0 mm 0.0 W/m2 CLR
23:58 10.6 °C 4.4 °C 1021.2 hPa West 27.4 km/h 27.4 km/h 66 % 0.0 mm 0.0 W/m2 CLR
23:59 10.6 °C 4.2 °C 1021.2 hPa WNW 31.5 km/h 31.5 km/h 65 % 0.0 mm 0.0 W/m2 CLR
Lo Temps de Massalio
Compliments of Weather Underground - 1.25 mb